หน้าหลัก
METAR-TAF:

METAR-TAF

ท่าอากาศยาน :

Westerland, เยอรมนี

ละติจูด: 54-55N, ลองจิจูด: 008-21E, ความสูง: 16 ม.

การสังเกตสภาพอากาศปัจจุบัน

รายงานได้ทำขึ้นเมื่อ 38 นาทีที่แล้ว ณ เวลา 13:20 UTC
ลม 12 นอตจากเหนือ/ตะวันตกเฉียงเหนือ, แปรผันระหว่างตะวันตกเฉียงเหนือ และเหนือ/ตะวันออกเฉียงเหนือ
อุณหภูมิ 10°C
ความชื้น 62%
ความกดอากาศ 1027 hPa
ทัศนวิสัย 10 กม. หรือมากกว่า
มีเมฆน้อยที่ความสูง 4000 ฟุต

METAR: EDXW 211320Z 33012KT 310V020 9999 FEW040 10/03 Q1027

เวลา: 15:58 (13:58 UTC)

การพยากรณ์

รายงานได้ทำขึ้นเมื่อ 25 นาทีที่แล้ว ณ เวลา 13:33 UTC
การพยากรณ์มีผลตั้งแต่วันที่ 21 ณ เวลา 13 UTC จนถึงวันที่ 21 ณ เวลา 21 UTC
ลม 11 นอตจากเหนือ/ตะวันตกเฉียงเหนือ
ทัศนวิสัย 10 กม. หรือมากกว่า
มีเมฆน้อยที่ความสูง 2000 ฟุต
กำลังกลายเป็น
ตั้งแต่วันที่ 21 ณ เวลา 18 UTC จนถึงวันที่ 21 ณ เวลา 20 UTC
ลม 8 นอตจากตะวันออก/ตะวันออกเฉียงเหนือ

TAF: EDXW 211333Z 2113/2121 34011KT 9999 FEW020 BECMG 2118/2120 06008KT

สังเกตการณ์สภาพอากาศและพยากรณ์อากาศของสนามบินมากกว่า 4000 แห่ง (รายงาน METAR และ TAF).

สถานีที่ดูได้จะแสดงไว้ด้วยจุดสีเหลืองและสีแดงบนแผนที่.

เลื่อนเมาส์ไปเหนือจุดเพื่อดูชื่อสถานี.

แล้วคลิกเพื่อดูสังเกตการณ์และการพยากรณ์สภาพอากาศ.

ในการเปลี่ยนแผนที่: คลิกที่ปุ่มสีเขียวที่มีกากบาทสีดำเพื่อซูมเข้า; ที่ปุ่มสีเขียวที่มีขีดเพื่อซูมออก; หรือที่ลูกศรสีเขียวเพื่อไปยังแผนที่ที่อยู่ติดกัน.


METAR-TAF: